Time;durP1;ratioP1;P1;durP2;ratioP2;P2;SDS_P1;SDS_P2;PMS_P1;PMS_P2;Temp;Humidity;BMP_temperature;BMP_pressure;BME280_temperature;BME280_humidity;BME280_pressure;Samples;Min_cycle;Max_cycle;Signal;HPM_P1;HPM_P2
2021/12/14 00:01:15;;;;;;;12.50;7.37;;;9.40;98.10;;;;;;5035974;28;20031;-71
2021/12/14 00:03:44;;;;;;;12.00;7.60;;;9.40;98.20;;;;;;5036232;28;20057;-72
2021/12/14 00:06:11;;;;;;;9.93;6.80;;;9.40;98.20;;;;;;5018548;28;20021;-72
2021/12/14 00:08:48;;;;;;;14.33;7.73;;;9.40;98.20;;;;;;5036169;28;20044;-72
2021/12/14 00:11:31;;;;;;;13.53;7.37;;;9.50;98.30;;;;;;5017733;28;20072;-72
2021/12/14 00:14:13;;;;;;;11.07;7.43;;;9.40;98.20;;;;;;5020730;28;20036;-72
2021/12/14 00:16:41;;;;;;;13.03;7.93;;;9.40;98.30;;;;;;5018334;28;20029;-72
2021/12/14 00:19:07;;;;;;;11.60;7.60;;;9.50;98.40;;;;;;5017755;28;20037;-72
2021/12/14 00:21:33;;;;;;;12.90;7.93;;;9.40;98.40;;;;;;5018332;28;20068;-72
2021/12/14 00:24:10;;;;;;;15.50;8.20;;;9.40;98.40;;;;;;5018125;28;20057;-72
2021/12/14 00:26:46;;;;;;;13.00;8.10;;;9.40;98.40;;;;;;5018083;28;20018;-72
2021/12/14 00:29:28;;;;;;;11.50;7.43;;;9.50;98.40;;;;;;5035448;28;20478;-72
2021/12/14 00:31:56;;;;;;;12.33;7.83;;;9.40;98.50;;;;;;5035568;28;20048;-73
2021/12/14 00:34:34;;;;;;;11.53;7.47;;;9.40;98.50;;;;;;5035687;28;20140;-73
2021/12/14 00:37:00;;;;;;;11.53;7.50;;;9.50;98.50;;;;;;5035715;28;20021;-73
2021/12/14 00:39:25;;;;;;;12.20;8.83;;;9.40;98.50;;;;;;5035604;28;20087;-73
2021/12/14 00:41:51;;;;;;;14.90;8.67;;;9.50;98.50;;;;;;5035302;28;20037;-72
2021/12/14 00:44:18;;;;;;;12.90;8.40;;;9.40;98.50;;;;;;5017877;28;20036;-72
2021/12/14 00:46:43;;;;;;;17.77;8.43;;;9.40;98.60;;;;;;5017988;28;20049;-73
2021/12/14 00:49:12;;;;;;;13.50;8.17;;;9.40;98.60;;;;;;5017599;28;20060;-72
2021/12/14 00:51:38;;;;;;;13.37;8.63;;;9.40;98.60;;;;;;5035485;28;20075;-72
2021/12/14 00:54:10;;;;;;;14.30;9.33;;;9.40;98.60;;;;;;5035433;28;20037;-73
2021/12/14 00:56:36;;;;;;;15.33;9.53;;;9.40;98.70;;;;;;5034996;28;20064;-72
2021/12/14 00:59:04;;;;;;;14.30;9.00;;;9.40;98.70;;;;;;5035230;28;20065;-72
2021/12/14 01:01:36;;;;;;;14.43;9.17;;;9.40;98.70;;;;;;5017353;28;20095;-71
2021/12/14 01:04:07;;;;;;;13.27;9.03;;;9.40;98.70;;;;;;5017489;28;20030;-72
2021/12/14 01:06:36;;;;;;;12.27;8.60;;;9.40;98.80;;;;;;5017371;28;20026;-72
2021/12/14 01:09:05;;;;;;;16.67;9.53;;;9.30;98.80;;;;;;5035141;28;20017;-73
2021/12/14 01:11:37;;;;;;;13.57;8.93;;;9.40;98.80;;;;;;5016944;28;20021;-72
2021/12/14 01:14:26;;;;;;;13.00;8.93;;;9.40;98.80;;;;;;5034933;28;20056;-73
2021/12/14 01:17:12;;;;;;;14.43;8.97;;;9.40;98.80;;;;;;5034975;28;20053;-73
2021/12/14 01:19:41;;;;;;;12.87;9.33;;;9.40;98.90;;;;;;5017002;28;20120;-72
2021/12/14 01:27:15;;;;;;;17.40;11.00;;;9.30;98.90;;;;;;5034579;28;20041;-72
2021/12/14 01:29:43;;;;;;;16.50;10.50;;;9.40;99.00;;;;;;5016998;28;20452;-72
2021/12/14 01:32:10;;;;;;;15.67;10.07;;;9.40;99.00;;;;;;5034543;28;20535;-72
2021/12/14 01:34:37;;;;;;;14.53;9.77;;;9.30;98.90;;;;;;5017154;28;20034;-72
2021/12/14 01:37:08;;;;;;;15.07;10.30;;;9.30;99.00;;;;;;5033958;28;20091;-73
2021/12/14 01:40:03;;;;;;;18.03;11.00;;;9.30;99.00;;;;;;5016743;28;20021;-73
2021/12/14 01:42:33;;;;;;;14.53;8.93;;;9.30;99.00;;;;;;5034209;28;20029;-73
2021/12/14 01:45:09;;;;;;;16.30;10.33;;;9.30;99.00;;;;;;5034276;28;20382;-73
2021/12/14 01:47:46;;;;;;;16.20;11.93;;;9.40;99.10;;;;;;5034088;28;20048;-73
2021/12/14 01:50:23;;;;;;;18.47;12.13;;;9.30;99.00;;;;;;5034186;28;20378;-73
2021/12/14 01:52:49;;;;;;;16.87;11.40;;;9.40;99.10;;;;;;5034242;28;20033;-73
2021/12/14 01:55:23;;;;;;;16.43;10.97;;;9.30;99.10;;;;;;5034224;28;20378;-73
2021/12/14 01:57:48;;;;;;;;;;;9.30;99.10;;;;;;5016554;28;20462;-73
2021/12/14 02:00:44;;;;;;;15.80;10.77;;;9.30;99.10;;;;;;5034206;28;20004;-74
2021/12/14 02:03:13;;;;;;;16.33;11.50;;;9.30;99.20;;;;;;5012242;28;20172;-73
2021/12/14 02:05:47;;;;;;;19.43;12.13;;;9.30;99.20;;;;;;5034067;28;20028;-74
2021/12/14 02:08:23;;;;;;;;;;;9.20;99.50;;;;;;5016201;28;20477;-74
2021/12/14 02:10:51;;;;;;;16.57;11.03;;;9.20;99.30;;;;;;5033644;28;19916;-72
2021/12/14 02:13:32;;;;;;;15.83;11.03;;;9.20;99.40;;;;;;5033965;28;20038;-72
2021/12/14 02:16:00;;;;;;;19.27;11.03;;;9.20;99.40;;;;;;5033946;28;20035;-72
2021/12/14 02:18:27;;;;;;;15.37;10.67;;;9.20;99.40;;;;;;5033923;28;20071;-73
2021/12/14 02:20:55;;;;;;;20.20;12.13;;;9.10;99.40;;;;;;4999325;28;20049;-73
2021/12/14 02:23:21;;;;;;;16.43;11.37;;;9.10;99.50;;;;;;5033599;28;20079;-73
2021/12/14 02:25:49;;;;;;;19.03;12.23;;;9.10;99.50;;;;;;5033415;28;20029;-73
2021/12/14 02:28:18;;;;;;;18.20;12.03;;;9.10;99.50;;;;;;5033279;28;20116;-72
2021/12/14 02:30:44;;;;;;;19.13;11.33;;;9.10;99.50;;;;;;5033605;28;20477;-72
2021/12/14 02:33:21;;;;;;;18.30;11.90;;;9.10;99.50;;;;;;5033585;28;20473;-72
2021/12/14 02:35:47;;;;;;;19.00;11.97;;;9.10;99.50;;;;;;5033521;28;20033;-72
2021/12/14 02:38:17;;;;;;;19.37;12.33;;;9.10;99.80;;;;;;5015915;28;20033;-72
2021/12/14 02:40:54;;;;;;;18.03;12.60;;;9.10;99.60;;;;;;5016269;28;20120;-73
2021/12/14 02:43:35;;;;;;;20.50;13.33;;;9.10;99.60;;;;;;5033139;28;20489;-73
2021/12/14 02:46:22;;;;;;;19.30;12.83;;;9.10;99.70;;;;;;5033329;28;20491;-73
2021/12/14 02:48:51;;;;;;;21.57;13.57;;;9.10;99.70;;;;;;5014945;28;20018;-72
2021/12/14 02:51:19;;;;;;;18.07;12.40;;;9.10;99.70;;;;;;5033632;28;20444;-73
2021/12/14 02:53:48;;;;;;;19.83;13.17;;;9.10;99.60;;;;;;5033326;28;20462;-73
2021/12/14 02:56:18;;;;;;;22.60;13.67;;;9.00;99.70;;;;;;5032742;28;20391;-73
2021/12/14 02:58:45;;;;;;;18.90;12.63;;;9.10;99.70;;;;;;5033212;28;20097;-74
2021/12/14 03:01:12;;;;;;;21.17;13.97;;;9.10;99.80;;;;;;5015197;28;20037;-73
2021/12/14 03:03:38;;;;;;;20.73;13.50;;;9.10;99.80;;;;;;5032909;28;20037;-73
2021/12/14 03:06:06;;;;;;;18.07;12.73;;;9.10;99.80;;;;;;5015444;28;20493;-73
2021/12/14 03:08:37;;;;;;;19.97;13.17;;;9.10;99.90;;;;;;5033090;28;20377;-73
2021/12/14 03:11:10;;;;;;;21.23;13.57;;;9.10;99.80;;;;;;5015408;28;20038;-73
2021/12/14 03:13:43;;;;;;;18.97;13.10;;;9.10;99.80;;;;;;5032801;28;20040;-73
2021/12/14 03:16:15;;;;;;;22.02;14.30;;;9.10;99.80;;;;;;5028383;28;20033;-73
2021/12/14 03:18:45;;;;;;;21.70;14.60;;;9.10;99.80;;;;;;5033082;28;20108;-73
2021/12/14 03:21:19;;;;;;;23.27;14.43;;;9.20;99.90;;;;;;5032479;28;20509;-73
2021/12/14 03:23:48;;;;;;;20.60;14.00;;;9.10;99.80;;;;;;5019993;28;20374;-73
2021/12/14 03:26:19;;;;;;;19.90;13.73;;;9.10;99.90;;;;;;5032878;28;20041;-73
2021/12/14 03:28:50;;;;;;;21.97;14.40;;;9.00;99.80;;;;;;5032675;28;20362;-73
2021/12/14 03:31:35;;;;;;;24.63;15.23;;;9.10;99.90;;;;;;5014685;28;20030;-73
2021/12/14 03:34:03;;;;;;;21.70;14.37;;;9.10;99.90;;;;;;5032811;28;20021;-73
2021/12/14 03:36:33;;;;;;;21.50;14.50;;;9.10;99.90;;;;;;5032758;28;20100;-73
2021/12/14 03:39:03;;;;;;;23.70;13.87;;;9.00;99.80;;;;;;5032843;28;20030;-73
2021/12/14 03:41:36;;;;;;;23.37;14.33;;;9.00;99.90;;;;;;5014815;28;20030;-73
2021/12/14 03:44:11;;;;;;;22.92;14.43;;;9.00;99.90;;;;;;5032821;28;20565;-72
2021/12/14 03:46:48;;;;;;;;;;;9.00;99.90;;;;;;5033166;28;20048;-72
2021/12/14 03:49:15;;;;;;;21.17;13.80;;;9.00;99.90;;;;;;5032344;28;19917;-72
2021/12/14 03:51:43;;;;;;;21.20;13.80;;;9.00;99.90;;;;;;5032781;28;20478;-73
2021/12/14 03:54:09;;;;;;;22.83;14.30;;;9.00;99.90;;;;;;5014933;28;20370;-73
2021/12/14 03:56:36;;;;;;;22.07;14.17;;;9.00;99.90;;;;;;5032594;28;20088;-72
2021/12/14 03:59:03;;;;;;;19.80;13.80;;;9.00;99.90;;;;;;5016136;28;20082;-73
2021/12/14 04:01:32;;;;;;;23.57;14.50;;;9.00;99.90;;;;;;5035941;28;20088;-73
2021/12/14 04:04:11;;;;;;;21.27;14.07;;;9.00;99.90;;;;;;5036295;28;20104;-72
2021/12/14 04:06:38;;;;;;;20.50;12.70;;;9.00;99.90;;;;;;5036412;28;20029;-72
2021/12/14 04:09:07;;;;;;;24.07;13.70;;;9.00;99.90;;;;;;5018810;28;20021;-73
2021/12/14 04:11:33;;;;;;;20.53;13.70;;;9.00;99.90;;;;;;5036160;28;20037;-73
2021/12/14 04:13:59;;;;;;;21.27;14.00;;;9.00;99.90;;;;;;5036088;28;20037;-73
2021/12/14 04:16:26;;;;;;;23.27;14.30;;;9.00;99.90;;;;;;5018315;28;20034;-73
2021/12/14 04:18:53;;;;;;;23.77;15.13;;;9.00;99.90;;;;;;5018342;28;20393;-73
2021/12/14 04:21:19;;;;;;;24.97;15.23;;;9.00;99.90;;;;;;5014944;28;20049;-73
2021/12/14 04:23:49;;;;;;;22.90;14.83;;;9.00;99.90;;;;;;5016155;28;20026;-73
2021/12/14 04:26:16;;;;;;;21.50;14.97;;;9.00;99.90;;;;;;5014931;28;20026;-72
2021/12/14 04:28:51;;;;;;;21.27;14.13;;;9.00;99.90;;;;;;5016121;28;20478;-73
2021/12/14 04:31:18;;;;;;;20.70;14.43;;;9.00;99.90;;;;;;4996475;28;20471;-73
2021/12/14 04:33:46;;;;;;;24.30;14.67;;;8.90;99.90;;;;;;4995344;28;20117;-72
2021/12/14 04:36:14;;;;;;;20.03;12.97;;;9.00;99.90;;;;;;4996315;28;20042;-73
2021/12/14 04:38:55;;;;;;;20.20;12.23;;;9.00;99.90;;;;;;4996276;28;20511;-72
2021/12/14 04:52:27;;;;;;;20.80;12.87;;;8.90;99.90;;;;;;5015657;28;20056;-72
2021/12/14 04:54:59;;;;;;;20.93;14.23;;;8.90;99.90;;;;;;5015672;28;20026;-72
2021/12/14 04:57:34;;;;;;;20.80;13.50;;;8.80;99.90;;;;;;5015520;28;20055;-72
2021/12/14 05:00:20;;;;;;;19.33;13.20;;;8.90;99.90;;;;;;5015171;28;20079;-72
2021/12/14 05:02:47;;;;;;;19.33;12.63;;;8.90;99.90;;;;;;5013889;28;20465;-72
2021/12/14 05:05:19;;;;;;;17.53;11.90;;;8.90;99.90;;;;;;5014311;28;20069;-72
2021/12/14 05:10:59;;;;;;;20.27;12.33;;;8.90;99.90;;;;;;4972019;28;20038;-72
2021/12/14 05:13:41;;;;;;;20.63;12.40;;;8.90;99.90;;;;;;4995769;28;20022;-72
2021/12/14 05:16:08;;;;;;;20.37;13.77;;;8.90;99.90;;;;;;4996012;28;20041;-72
2021/12/14 05:18:34;;;;;;;19.33;11.67;;;9.00;99.90;;;;;;5013080;28;20029;-73
2021/12/14 05:21:01;;;;;;;18.70;11.83;;;8.90;99.90;;;;;;4995777;28;20108;-72
2021/12/14 05:23:31;;;;;;;17.07;10.60;;;8.90;99.90;;;;;;5013976;28;20052;-72
2021/12/14 05:25:58;;;;;;;21.63;11.87;;;8.90;99.90;;;;;;5008520;28;20025;-72
2021/12/14 05:28:25;;;;;;;16.80;10.97;;;8.90;99.90;;;;;;5001282;28;20025;-72
2021/12/14 05:30:57;;;;;;;17.37;9.83;;;8.90;99.90;;;;;;4995575;28;20030;-72
2021/12/14 05:33:29;;;;;;;18.03;11.07;;;8.90;99.90;;;;;;4999442;28;20022;-73
2021/12/14 05:35:58;;;;;;;17.73;11.13;;;8.90;99.90;;;;;;5013270;28;20037;-73
2021/12/14 05:38:40;;;;;;;19.00;11.90;;;8.90;99.90;;;;;;5002174;28;20022;-73
2021/12/14 05:41:10;;;;;;;16.03;9.73;;;8.90;99.90;;;;;;4994174;28;20054;-73
2021/12/14 05:43:37;;;;;;;19.83;10.27;;;8.90;99.90;;;;;;4999407;28;20108;-73
2021/12/14 05:46:06;;;;;;;17.57;10.37;;;8.90;99.90;;;;;;5013312;28;20479;-73
2021/12/14 05:48:35;;;;;;;16.00;9.67;;;8.80;99.90;;;;;;5014661;28;20100;-72
2021/12/14 05:51:05;;;;;;;19.43;10.70;;;8.90;99.90;;;;;;5014636;28;20116;-72
2021/12/14 05:53:38;;;;;;;19.27;11.00;;;8.90;99.90;;;;;;5014225;28;20034;-72
2021/12/14 05:56:13;;;;;;;18.27;9.83;;;8.80;99.90;;;;;;5013081;28;20025;-72
2021/12/14 05:58:39;;;;;;;18.70;10.03;;;8.90;99.90;;;;;;5012810;28;20118;-72
2021/12/14 06:01:11;;;;;;;18.80;10.50;;;8.90;99.90;;;;;;5014147;28;20117;-72
2021/12/14 06:03:48;;;;;;;18.40;11.23;;;8.90;99.90;;;;;;5014274;28;20474;-72
2021/12/14 06:06:20;;;;;;;16.67;10.20;;;8.90;99.90;;;;;;5014243;28;20022;-72
2021/12/14 06:08:46;;;;;;;18.77;10.07;;;8.90;99.90;;;;;;5009917;28;20026;-73
2021/12/14 06:11:23;;;;;;;18.90;10.67;;;8.90;99.90;;;;;;4994544;28;20029;-73
2021/12/14 06:13:50;;;;;;;19.23;11.33;;;8.80;99.90;;;;;;5006767;28;20038;-73
2021/12/14 06:16:27;;;;;;;18.77;10.53;;;8.80;99.90;;;;;;5012636;28;20030;-74
2021/12/14 06:19:10;;;;;;;19.67;11.00;;;8.90;99.90;;;;;;5012783;28;20029;-73
2021/12/14 06:21:36;;;;;;;18.07;11.00;;;8.90;99.90;;;;;;5013760;28;20042;-73
2021/12/14 06:24:04;;;;;;;19.00;12.03;;;8.80;99.90;;;;;;5012775;28;20491;-73
2021/12/14 06:26:42;;;;;;;20.60;11.47;;;8.80;99.90;;;;;;5005078;28;20029;-74
2021/12/14 06:29:12;;;;;;;21.07;11.73;;;8.80;99.90;;;;;;4997754;28;20030;-73
2021/12/14 06:31:40;;;;;;;22.30;11.57;;;8.80;99.90;;;;;;5012126;28;20520;-73
2021/12/14 06:34:24;;;;;;;19.73;11.90;;;8.70;99.90;;;;;;5014066;28;20057;-73
2021/12/14 06:40:00;;;;;;;18.27;11.37;;;8.70;99.90;;;;;;5009289;28;20030;-73
2021/12/14 06:42:26;;;;;;;21.53;12.27;;;8.70;99.90;;;;;;5013537;28;20449;-73
2021/12/14 06:45:15;;;;;;;20.57;12.37;;;8.70;99.90;;;;;;5011062;28;20076;-73
2021/12/14 06:47:42;;;;;;;20.10;12.30;;;8.70;99.90;;;;;;5012688;28;20025;-74
2021/12/14 06:50:13;;;;;;;19.40;12.63;;;8.70;99.90;;;;;;4986274;28;20097;-71
2021/12/14 06:52:40;;;;;;;21.30;12.07;;;8.80;99.90;;;;;;5012960;28;20029;-72
2021/12/14 06:55:06;;;;;;;21.50;12.30;;;8.70;99.90;;;;;;5004059;28;20030;-72
2021/12/14 06:57:32;;;;;;;19.33;12.13;;;8.70;99.90;;;;;;5002351;28;20092;-71
2021/12/14 06:59:59;;;;;;;19.77;12.27;;;8.70;99.90;;;;;;5012687;28;20034;-72
2021/12/14 07:02:26;;;;;;;22.03;12.67;;;8.80;99.90;;;;;;5013456;28;20037;-72
2021/12/14 07:04:52;;;;;;;22.77;12.27;;;8.70;99.90;;;;;;5013619;28;20030;-72
2021/12/14 07:07:24;;;;;;;23.93;13.83;;;8.80;99.90;;;;;;5016078;28;20026;-72
2021/12/14 07:09:54;;;;;;;22.80;13.47;;;8.70;99.90;;;;;;5013037;28;20529;-73
2021/12/14 07:12:31;;;;;;;24.40;13.70;;;8.80;99.90;;;;;;5013259;28;20030;-72
2021/12/14 07:15:03;;;;;;;24.20;13.27;;;8.80;99.90;;;;;;5012721;28;20080;-73
2021/12/14 07:17:44;;;;;;;23.27;12.93;;;8.70;99.90;;;;;;5029865;28;20029;-72
2021/12/14 07:20:15;;;;;;;23.60;14.87;;;8.80;99.90;;;;;;5022446;28;20124;-73
2021/12/14 07:22:56;;;;;;;26.80;14.30;;;8.80;99.90;;;;;;5030774;28;20053;-72
2021/12/14 07:25:34;;;;;;;25.33;15.83;;;8.80;99.90;;;;;;5030622;28;20026;-73
2021/12/14 07:28:15;;;;;;;25.03;14.40;;;8.80;99.90;;;;;;5019711;28;20022;-73
2021/12/14 07:30:40;;;;;;;24.40;14.63;;;8.80;99.90;;;;;;5024302;28;20489;-73
2021/12/14 07:33:06;;;;;;;23.90;14.63;;;8.80;99.90;;;;;;5030717;28;20034;-73
2021/12/14 07:36:05;;;;;;;25.40;15.20;;;8.70;99.90;;;;;;5034539;28;20068;-73
2021/12/14 07:38:45;;;;;;;25.03;15.30;;;8.80;99.90;;;;;;5035621;28;20108;-73
2021/12/14 07:41:23;;;;;;;26.67;16.40;;;8.80;99.90;;;;;;5035303;28;20108;-73
2021/12/14 07:44:16;;;;;;;25.90;15.73;;;8.90;99.90;;;;;;5031197;28;20365;-73
2021/12/14 07:46:47;;;;;;;26.57;15.97;;;8.80;99.90;;;;;;5048390;28;20500;-73
2021/12/14 07:49:29;;;;;;;27.07;15.63;;;8.80;99.90;;;;;;5048957;28;20112;-73
2021/12/14 07:52:09;;;;;;;25.33;15.27;;;8.80;99.90;;;;;;5047776;28;20029;-73
2021/12/14 07:54:53;;;;;;;26.00;15.50;;;8.80;99.90;;;;;;5040484;28;20124;-73
2021/12/14 07:57:25;;;;;;;29.02;16.80;;;8.80;99.90;;;;;;5036310;28;20053;-73
2021/12/14 08:00:17;;;;;;;28.17;16.43;;;8.90;99.90;;;;;;5035199;28;20030;-73
2021/12/14 08:02:49;;;;;;;29.47;17.07;;;8.90;99.90;;;;;;5012960;28;20103;-73
2021/12/14 08:05:23;;;;;;;28.17;17.87;;;8.90;99.90;;;;;;5024661;28;20017;-73
2021/12/14 08:07:58;;;;;;;;;;;8.90;99.90;;;;;;5023235;28;20024;-73
2021/12/14 08:10:29;;;;;;;;;;;8.90;99.90;;;;;;5046545;28;19911;-73
2021/12/14 08:13:02;;;;;;;24.00;15.43;;;8.90;99.90;;;;;;5031612;28;19904;-73
2021/12/14 08:15:51;;;;;;;23.73;15.00;;;8.90;99.90;;;;;;5055389;28;20036;-73
2021/12/14 08:18:22;;;;;;;27.73;17.17;;;8.90;99.90;;;;;;5037040;28;20036;-73
2021/12/14 08:21:31;;;;;;;28.90;18.13;;;8.90;99.90;;;;;;5025306;28;20390;-73
2021/12/14 08:24:00;;;;;;;31.67;18.30;;;9.00;99.90;;;;;;4959188;28;20328;-73
2021/12/14 08:26:51;;;;;;;33.67;19.23;;;8.90;99.90;;;;;;5015337;28;20435;-73
2021/12/14 08:29:21;;;;;;;32.23;19.87;;;9.00;99.90;;;;;;5011588;28;20060;-73
2021/12/14 08:32:04;;;;;;;28.57;18.13;;;9.00;99.90;;;;;;5034739;28;20041;-73
2021/12/14 08:34:34;;;;;;;27.33;17.77;;;9.00;99.90;;;;;;5015478;28;20420;-73
2021/12/14 08:37:09;;;;;;;30.37;18.93;;;9.00;99.90;;;;;;5020308;28;20033;-73
2021/12/14 08:39:49;;;;;;;33.30;19.93;;;9.00;99.90;;;;;;5037572;28;20032;-73
2021/12/14 08:42:33;;;;;;;31.40;19.33;;;9.00;99.90;;;;;;5027680;28;20029;-73
2021/12/14 08:45:04;;;;;;;31.10;19.55;;;9.00;99.90;;;;;;5034034;28;20048;-73
2021/12/14 08:47:39;;;;;;;30.53;18.63;;;9.00;99.90;;;;;;5036122;28;20041;-73
2021/12/14 08:50:12;;;;;;;29.87;19.43;;;9.10;99.90;;;;;;5013589;28;20049;-73
2021/12/14 08:52:41;;;;;;;28.23;18.33;;;9.10;99.90;;;;;;5015929;28;20030;-73
2021/12/14 08:55:10;;;;;;;30.93;19.47;;;9.10;99.90;;;;;;5017962;28;20058;-73
2021/12/14 08:57:38;;;;;;;30.27;19.23;;;9.10;99.90;;;;;;5017014;28;20452;-73
2021/12/14 09:00:12;;;;;;;32.07;19.03;;;9.20;99.90;;;;;;5010025;28;20755;-73
2021/12/14 09:02:39;;;;;;;30.57;19.30;;;9.20;99.90;;;;;;5015883;28;20021;-73
2021/12/14 09:05:15;;;;;;;32.13;18.17;;;9.20;99.90;;;;;;5017321;28;20025;-73
2021/12/14 09:07:42;;;;;;;31.43;19.67;;;9.20;99.90;;;;;;5012590;28;20022;-73
2021/12/14 09:10:13;;;;;;;27.07;18.47;;;9.20;99.90;;;;;;5022525;28;20466;-72
2021/12/14 09:12:43;;;;;;;31.20;20.53;;;9.30;99.90;;;;;;5034553;28;20025;-73
2021/12/14 09:15:20;;;;;;;32.53;20.57;;;9.30;99.90;;;;;;5026553;28;20113;-73
2021/12/14 09:17:47;;;;;;;32.77;21.13;;;9.40;99.90;;;;;;5011099;28;20022;-73
2021/12/14 09:20:27;;;;;;;33.47;20.37;;;9.40;99.70;;;;;;5013014;28;20095;-73
2021/12/14 09:22:57;;;;;;;34.17;20.90;;;9.40;99.70;;;;;;5009174;28;20026;-73
2021/12/14 09:25:26;;;;;;;33.20;20.50;;;9.40;99.70;;;;;;5027901;28;20355;-73
2021/12/14 09:27:53;;;;;;;34.00;20.40;;;9.50;99.70;;;;;;5027823;28;20109;-73
2021/12/14 09:30:22;;;;;;;32.70;21.33;;;9.50;99.70;;;;;;5012985;28;20025;-73
2021/12/14 09:32:49;;;;;;;33.07;22.07;;;9.50;99.60;;;;;;5054391;28;20083;-73
2021/12/14 09:35:20;;;;;;;32.60;20.60;;;9.50;99.70;;;;;;5025625;28;20040;-73
2021/12/14 09:37:48;;;;;;;33.63;21.30;;;9.50;99.70;;;;;;5014743;28;20026;-73
2021/12/14 09:40:33;;;;;;;34.73;21.40;;;9.50;99.60;;;;;;5019857;28;20478;-73
2021/12/14 09:42:59;;;;;;;35.13;20.20;;;9.60;99.50;;;;;;5023300;28;20038;-73
2021/12/14 09:45:48;;;;;;;36.83;21.97;;;9.60;99.40;;;;;;5022817;28;20025;-73
2021/12/14 09:48:20;;;;;;;34.07;21.83;;;9.60;99.40;;;;;;5000570;28;20096;-73
2021/12/14 09:50:52;;;;;;;33.87;20.90;;;9.60;99.40;;;;;;5034646;28;20052;-73
2021/12/14 09:53:22;;;;;;;35.07;21.83;;;9.60;99.40;;;;;;5002344;28;20025;-73
2021/12/14 09:55:49;;;;;;;38.33;24.80;;;9.50;99.30;;;;;;5046415;28;20033;-73
2021/12/14 09:58:21;;;;;;;36.60;21.77;;;9.60;99.20;;;;;;5033605;28;20521;-74
2021/12/14 10:00:52;;;;;;;38.30;22.17;;;9.60;99.30;;;;;;5014667;28;20099;-73
2021/12/14 10:03:27;;;;;;;32.67;21.00;;;9.60;99.30;;;;;;5028210;28;20028;-74
2021/12/14 10:05:57;;;;;;;37.47;22.47;;;9.60;99.30;;;;;;5023561;28;20021;-73
2021/12/14 10:08:30;;;;;;;39.80;23.57;;;9.60;99.30;;;;;;5025219;28;20029;-73
2021/12/14 10:11:04;;;;;;;36.93;23.00;;;9.60;99.30;;;;;;4998066;28;20024;-73
2021/12/14 10:13:32;;;;;;;40.47;24.83;;;9.60;99.30;;;;;;4996278;28;20080;-73
2021/12/14 10:15:59;;;;;;;39.70;24.17;;;9.60;99.50;;;;;;5009249;28;20038;-73
2021/12/14 10:18:35;;;;;;;40.80;24.80;;;9.60;99.20;;;;;;5011434;28;20022;-73
2021/12/14 10:21:12;;;;;;;40.70;25.13;;;9.60;99.30;;;;;;4996080;28;20494;-73
2021/12/14 10:23:40;;;;;;;38.23;25.03;;;9.70;99.30;;;;;;5014150;28;20018;-73
2021/12/14 10:26:08;;;;;;;40.60;24.77;;;9.70;99.30;;;;;;4996734;28;20616;-73
2021/12/14 10:28:36;;;;;;;41.93;25.37;;;9.70;99.30;;;;;;5021290;28;20063;-72
2021/12/14 10:31:08;;;;;;;39.93;24.00;;;9.70;99.30;;;;;;5026275;28;20057;-72
2021/12/14 10:33:34;;;;;;;45.43;26.07;;;9.80;99.30;;;;;;5010042;28;20037;-72
2021/12/14 10:36:12;;;;;;;38.80;24.87;;;9.70;99.30;;;;;;4999923;28;20034;-72
2021/12/14 10:38:50;;;;;;;41.00;24.53;;;9.80;99.40;;;;;;5033829;28;20036;-73
2021/12/14 10:44:05;;;;;;;39.97;25.83;;;9.90;99.30;;;;;;5034156;28;20041;-73
2021/12/14 10:46:35;;;;;;;42.73;25.83;;;9.90;99.20;;;;;;5033647;28;20092;-73
2021/12/14 10:49:02;;;;;;;44.40;27.37;;;10.00;99.20;;;;;;5015547;28;20125;-73
2021/12/14 10:51:31;;;;;;;41.73;26.43;;;10.00;99.20;;;;;;5033545;28;20083;-73
2021/12/14 10:54:00;;;;;;;45.77;26.83;;;10.00;99.10;;;;;;5033649;28;20033;-74
2021/12/14 10:56:34;;;;;;;44.03;25.57;;;10.00;99.00;;;;;;5032487;28;20032;-73
2021/12/14 10:59:03;;;;;;;46.10;26.87;;;10.00;99.00;;;;;;5033216;28;20030;-73
2021/12/14 11:01:33;;;;;;;46.17;27.13;;;10.00;99.10;;;;;;5033212;28;20041;-73
2021/12/14 11:04:13;;;;;;;47.03;28.20;;;10.00;99.10;;;;;;4997077;28;20021;-72
2021/12/14 11:06:43;;;;;;;46.17;28.17;;;10.00;99.10;;;;;;5015580;28;20032;-72
2021/12/14 11:12:16;;;;;;;48.00;27.30;;;10.00;99.40;;;;;;5030418;28;20090;-73
2021/12/14 11:14:43;;;;;;;43.70;27.17;;;10.00;99.10;;;;;;5033103;28;20021;-73
2021/12/14 11:20:12;;;;;;;49.17;28.30;;;10.00;99.20;;;;;;5032793;28;20473;-73
2021/12/14 11:22:50;;;;;;;47.00;28.70;;;10.10;99.10;;;;;;5032368;28;20128;-73
2021/12/14 11:25:20;;;;;;;50.07;30.07;;;10.10;99.10;;;;;;5030779;28;20521;-73
2021/12/14 11:28:09;;;;;;;51.27;30.63;;;10.10;99.20;;;;;;5032252;28;20021;-73
2021/12/14 11:30:41;;;;;;;44.80;25.53;;;10.10;99.20;;;;;;5017446;28;20029;-73
2021/12/14 11:33:13;;;;;;;48.77;28.80;;;10.10;99.20;;;;;;5009224;28;20018;-73
2021/12/14 11:35:54;;;;;;;50.37;30.70;;;10.10;99.20;;;;;;5020418;28;20057;-73
2021/12/14 11:38:49;;;;;;;49.80;29.20;;;10.10;99.20;;;;;;5016301;28;20050;-73
2021/12/14 11:41:38;;;;;;;51.33;29.77;;;10.10;99.20;;;;;;5013409;28;20471;-73
2021/12/14 11:44:08;;;;;;;55.27;33.10;;;10.10;99.20;;;;;;5032396;28;20021;-73
2021/12/14 11:46:54;;;;;;;52.20;31.07;;;10.10;99.20;;;;;;5023665;28;20022;-73
2021/12/14 11:49:22;;;;;;;51.83;32.43;;;10.10;99.30;;;;;;5024459;28;20022;-73
2021/12/14 11:51:48;;;;;;;58.83;34.73;;;10.20;99.30;;;;;;5024155;28;20505;-72
2021/12/14 11:54:19;;;;;;;56.53;32.77;;;10.20;99.30;;;;;;5032334;28;20038;-72
2021/12/14 11:56:48;;;;;;;51.90;32.60;;;10.20;99.40;;;;;;5014597;28;20067;-72
2021/12/14 11:59:15;;;;;;;53.57;31.50;;;10.10;99.60;;;;;;5025143;28;20029;-77
2021/12/14 12:01:52;;;;;;;53.37;31.77;;;10.20;99.40;;;;;;5027937;28;20045;-73
2021/12/14 12:04:36;;;;;;;58.53;34.60;;;10.20;99.40;;;;;;5031578;28;20021;-73
2021/12/14 12:09:48;;;;;;;57.60;34.53;;;10.20;99.50;;;;;;5032470;28;20049;-73
2021/12/14 12:12:38;;;;;;;60.03;33.80;;;10.20;99.50;;;;;;5032568;28;20588;-74
2021/12/14 12:15:08;;;;;;;59.70;34.20;;;10.20;99.60;;;;;;5029059;28;20048;-73
2021/12/14 12:17:42;;;;;;;61.20;36.53;;;10.20;99.60;;;;;;5032282;28;20032;-73
2021/12/14 12:20:14;;;;;;;60.67;33.70;;;10.20;99.70;;;;;;5024270;28;20137;-73
2021/12/14 12:22:58;;;;;;;60.20;34.90;;;10.20;99.70;;;;;;5022216;28;20052;-73
2021/12/14 12:25:35;;;;;;;56.53;32.97;;;10.20;99.80;;;;;;5030465;28;20035;-73
2021/12/14 12:28:15;;;;;;;62.33;34.97;;;10.20;99.80;;;;;;5032626;28;20025;-73
2021/12/14 12:30:49;;;;;;;64.53;35.17;;;10.20;99.80;;;;;;4997978;28;20017;-73
2021/12/14 12:33:24;;;;;;;57.03;33.83;;;10.10;99.80;;;;;;5023465;28;20029;-73
2021/12/14 12:36:01;;;;;;;57.10;33.40;;;10.10;99.90;;;;;;5030461;28;20044;-73
2021/12/14 12:38:36;;;;;;;54.67;32.00;;;10.10;99.90;;;;;;5026369;28;20017;-73
2021/12/14 12:41:08;;;;;;;61.40;33.57;;;10.10;99.90;;;;;;5015911;28;20371;-73
2021/12/14 12:43:37;;;;;;;56.27;32.07;;;10.10;99.90;;;;;;5030422;28;20061;-73
2021/12/14 12:46:13;;;;;;;62.77;34.07;;;10.10;99.90;;;;;;5018314;28;20026;-73
2021/12/14 12:48:52;;;;;;;59.67;33.13;;;10.10;99.90;;;;;;5032333;28;20092;-73
2021/12/14 12:51:35;;;;;;;55.13;32.13;;;10.10;99.90;;;;;;5035757;28;20033;-73
2021/12/14 12:54:16;;;;;;;64.70;36.40;;;10.20;99.90;;;;;;5035730;28;20036;-73
2021/12/14 12:56:44;;;;;;;60.07;32.93;;;10.20;99.90;;;;;;5034789;28;20475;-73
2021/12/14 12:59:16;;;;;;;54.27;32.83;;;10.20;99.90;;;;;;5014867;28;20402;-73
2021/12/14 13:01:41;;;;;;;63.03;34.03;;;10.10;99.90;;;;;;5029106;28;20022;-73
2021/12/14 13:04:07;;;;;;;60.70;33.37;;;10.20;99.90;;;;;;5017245;28;20033;-73
2021/12/14 13:06:33;;;;;;;60.27;34.43;;;10.20;99.90;;;;;;5017278;28;20079;-72
2021/12/14 13:09:00;;;;;;;67.00;36.20;;;10.20;99.90;;;;;;5034949;28;20389;-72
2021/12/14 13:11:36;;;;;;;65.97;36.47;;;10.20;99.90;;;;;;5034846;28;20029;-72
2021/12/14 13:14:10;;;;;;;66.27;36.87;;;10.10;99.90;;;;;;5014682;28;20033;-72
2021/12/14 13:16:44;;;;;;;62.22;35.75;;;10.10;99.90;;;;;;5017424;28;20029;-72
2021/12/14 13:19:11;;;;;;;;;;;10.10;99.90;;;;;;5034934;28;20080;-73
2021/12/14 13:21:52;;;;;;;66.30;35.27;;;10.10;99.90;;;;;;5034271;28;19917;-73
2021/12/14 13:24:29;;;;;;;72.50;38.33;;;10.10;99.90;;;;;;5013642;28;20367;-72
2021/12/14 13:27:07;;;;;;;66.30;36.77;;;10.10;99.90;;;;;;5003786;28;20059;-72
2021/12/14 13:29:51;;;;;;;67.03;37.13;;;10.00;99.90;;;;;;5032761;28;20094;-71
2021/12/14 13:32:24;;;;;;;65.15;35.13;;;10.00;99.90;;;;;;5023899;28;20538;-72
2021/12/14 13:35:18;;;;;;;68.90;38.37;;;10.00;99.90;;;;;;5034716;28;20025;-72
2021/12/14 13:37:51;;;;;;;67.28;37.63;;;10.00;99.90;;;;;;5016264;28;20116;-72
2021/12/14 13:40:20;;;;;;;71.50;39.80;;;10.00;99.90;;;;;;5034603;28;20042;-72